| Date | Time | Temp. (oF) | Dew Point (oF) | Rel. Hum. (%) | Press. (in.) | Wind Dir. | Wind Speed (mph) | Hourly Rainfall (in.) |
|
|---|---|---|---|---|---|---|---|---|---|
| 1 | 07/16 | 00:00 | 75 | 75 | 100 | 30.08 | ENE | 0 | 0.00 |
| 2 | 07/15 | 23:00 | 75 | 74 | 99 | 30.07 | NE | 3 | 0.00 |
| 3 | 07/15 | 22:00 | 76 | 75 | 98 | 30.06 | NE | 0 | 0.00 |
| 4 | 07/15 | 21:00 | 76 | 74 | 95 | 30.04 | NE | 2 | 0.03 |
| 5 | 07/15 | 20:00 | 78 | 74 | 89 | 30.04 | SE | 3 | 0.00 |
| 6 | 07/15 | 19:00 | 80 | 74 | 83 | 30.03 | E | 2 | 0.00 |
| 7 | 07/15 | 18:00 | 84 | 78 | 83 | 30.01 | E | 2 | 0.00 |
| 8 | 07/15 | 17:00 | 83 | 78 | 86 | 30.01 | ESE | 5 | 0.00 |
| 9 | 07/15 | 16:00 | 80 | 77 | 92 | 30.00 | SW | 0 | 0.00 |
| 10 | 07/15 | 15:00 | 82 | 75 | 82 | 30.02 | S | 8 | 0.00 |
| 11 | 07/15 | 14:00 | 85 | 79 | 83 | 30.02 | ESE | 7 | 0.00 |
| 12 | 07/15 | 13:00 | 80 | 79 | 97 | 30.04 | E | 1 | 0.00 |
| 13 | 07/15 | 12:00 | 76 | 76 | 100 | 30.06 | ESE | 1 | 0.00 |
| 14 | 07/15 | 11:00 | 74 | 73 | 100 | 30.06 | SSE | 0 | 0.00 |
| 15 | 07/15 | 10:00 | 74 | 73 | 100 | 30.06 | NE | 5 | 0.00 |
| 16 | 07/15 | 09:00 | 73 | 72 | 100 | 30.05 | NNE | 0 | 0.01 |
| 17 | 07/15 | 08:00 | 73 | 72 | 100 | 30.05 | NE | 2 | 0.00 |
| 18 | 07/15 | 07:00 | 75 | 75 | 100 | 30.04 | NNE | 5 | 0.00 |
| 19 | 07/15 | 06:00 | 75 | 75 | 100 | 30.02 | WNW | 0 | 0.00 |
| 20 | 07/15 | 05:00 | 75 | 75 | 100 | 30.00 | E | 0 | 0.00 |
| 21 | 07/15 | 04:00 | 74 | 73 | 100 | 30.00 | E | 0 | 0.00 |
| 22 | 07/15 | 03:00 | 74 | 73 | 100 | 30.00 | SSE | 0 | 0.00 |
| 23 | 07/15 | 02:00 | 74 | 73 | 100 | 29.99 | ENE | 0 | 0.00 |
| 24 | 07/15 | 01:00 | 75 | 75 | 100 | 29.99 | ENE | 0 | 0.01 |